Terminal Aerodrome Forecast
Issued by NWS

Current Version | Previous Version | Graphics & Text | Print | Product List | Glossary On
Versions: 1 2 3 4 5 6 7 8 9 10 11 12 13 14 15 16
147
FTUS41 KILN 291751
TAFLCK
TAF
KLCK 291751Z 2918/3018 07007KT P6SM SCT250
     FM300600 07008KT P6SM BKN100
     FM301200 10011KT P6SM BKN025
     FM301500 12012G20KT P6SM BKN035=

USA.gov is the U.S. government's official web portal to all federal, state and local government web resources and services.